createdAt,value
2018-02-03T00:00:22.055Z,97.35
2018-02-03T00:01:22.020Z,97.16
2018-02-03T00:02:21.993Z,97.73
2018-02-03T00:03:21.980Z,98.11
2018-02-03T00:04:21.933Z,97.35
2018-02-03T00:05:21.907Z,96.97
2018-02-03T00:06:21.873Z,96.88
2018-02-03T00:07:21.842Z,96.88
2018-02-03T00:08:21.815Z,97.35
2018-02-03T00:09:21.789Z,97.44
2018-02-03T00:10:21.800Z,98.20
2018-02-03T00:11:21.726Z,97.54
2018-02-03T00:12:21.693Z,97.82
2018-02-03T00:13:21.666Z,98.39
2018-02-03T00:14:21.635Z,98.44
2018-02-03T00:15:21.617Z,97.78
2018-02-03T00:16:21.573Z,96.55
2018-02-03T00:17:21.537Z,96.64
2018-02-03T00:18:21.508Z,96.64
2018-02-03T00:19:21.479Z,96.92
2018-02-03T00:20:21.451Z,96.64
2018-02-03T00:21:21.421Z,96.55
2018-02-03T00:22:21.392Z,96.73
2018-02-03T00:23:21.361Z,96.17
2018-02-03T00:24:21.328Z,96.36
2018-02-03T00:25:21.301Z,95.98
2018-02-03T00:26:21.270Z,95.60
2018-02-03T00:27:21.248Z,95.98
2018-02-03T00:28:21.209Z,95.98
2018-02-03T00:29:21.207Z,96.26
2018-02-03T00:30:21.151Z,95.98
2018-02-03T00:31:21.112Z,95.98
2018-02-03T00:32:21.092Z,96.26
2018-02-03T00:33:21.063Z,95.60
2018-02-03T00:34:21.026Z,96.92
2018-02-03T00:35:21.002Z,97.02
2018-02-03T00:36:20.963Z,97.49
2018-02-03T00:37:20.972Z,97.68
2018-02-03T00:38:20.910Z,96.55
2018-02-03T00:39:20.882Z,96.26
2018-02-03T00:40:20.847Z,96.26
2018-02-03T00:41:20.822Z,95.79
2018-02-03T00:42:20.793Z,97.11
2018-02-03T00:43:20.766Z,96.55
2018-02-03T00:44:20.726Z,97.30
2018-02-03T00:45:20.695Z,96.45
2018-02-03T00:46:20.674Z,96.73
2018-02-03T00:47:20.638Z,95.79
2018-02-03T00:48:20.610Z,95.22
2018-02-03T00:49:20.582Z,95.22
2018-02-03T00:50:20.551Z,95.31
2018-02-03T00:51:20.518Z,95.03
2018-02-03T00:52:20.493Z,95.03
2018-02-03T00:53:20.462Z,95.60
2018-02-03T00:54:20.429Z,95.60
2018-02-03T00:55:20.448Z,95.41
2018-02-03T00:56:20.372Z,95.88
2018-02-03T00:57:20.343Z,95.60
2018-02-03T00:58:20.310Z,95.60
2018-02-03T00:59:20.281Z,95.22
2018-02-03T01:00:20.248Z,94.74
2018-02-03T01:01:20.223Z,94.74
2018-02-03T01:02:20.187Z,95.41
2018-02-03T01:03:20.158Z,95.22
2018-02-03T01:04:20.132Z,94.65
2018-02-03T01:05:20.098Z,94.08
2018-02-03T01:06:20.069Z,94.56
2018-02-03T01:07:20.044Z,94.46
2018-02-03T01:08:20.008Z,95.03
2018-02-03T01:09:19.987Z,94.84
2018-02-03T01:10:19.952Z,94.46
2018-02-03T01:11:19.919Z,95.03
2018-02-03T01:12:19.896Z,95.03
2018-02-03T01:13:19.864Z,95.03
2018-02-03T01:14:19.831Z,94.84
2018-02-03T01:15:19.798Z,94.37
2018-02-03T01:16:19.770Z,94.27
2018-02-03T01:17:19.763Z,94.46
2018-02-03T01:18:19.708Z,94.65
2018-02-03T01:19:19.679Z,95.03
2018-02-03T01:20:19.653Z,94.46
2018-02-03T01:21:19.623Z,95.98
2018-02-03T01:22:19.592Z,95.60
2018-02-03T01:23:19.575Z,95.88
2018-02-03T01:24:19.531Z,96.64
2018-02-03T01:25:19.497Z,95.98
2018-02-03T01:26:19.474Z,96.07
2018-02-03T01:27:19.438Z,95.88
2018-02-03T01:28:19.409Z,95.88
2018-02-03T01:29:19.375Z,96.07
2018-02-03T01:30:19.348Z,95.88
2018-02-03T01:31:19.329Z,96.07
2018-02-03T01:32:19.286Z,95.60
2018-02-03T01:33:19.257Z,95.88
2018-02-03T01:34:19.235Z,96.83
2018-02-03T01:35:19.200Z,97.11
2018-02-03T01:36:19.168Z,96.73
2018-02-03T01:37:19.138Z,96.83
2018-02-03T01:38:19.110Z,96.64
2018-02-03T01:39:19.101Z,96.55
2018-02-03T01:40:19.052Z,97.35
2018-02-03T01:41:19.017Z,97.25
2018-02-03T01:42:18.987Z,98.49
2018-02-03T01:43:18.959Z,97.97
2018-02-03T01:44:18.979Z,97.78
2018-02-03T01:45:18.901Z,98.11
2018-02-03T01:46:18.865Z,98.16
2018-02-03T01:47:18.840Z,98.16
2018-02-03T01:48:18.802Z,97.30
2018-02-03T01:49:18.780Z,97.11
2018-02-03T01:50:18.744Z,96.73
2018-02-03T01:51:18.719Z,94.93
2018-02-03T01:52:18.687Z,95.31
2018-02-03T01:53:18.675Z,95.69
2018-02-03T01:54:18.624Z,95.60
2018-02-03T01:55:18.595Z,95.50
2018-02-03T01:56:18.576Z,95.60
2018-02-03T01:57:18.534Z,96.07
2018-02-03T01:58:18.506Z,94.74
2018-02-03T01:59:18.475Z,93.37
2018-02-03T02:00:18.449Z,94.04
2018-02-03T02:01:18.414Z,94.79
2018-02-03T02:02:18.386Z,95.74
2018-02-03T02:03:18.353Z,95.93
2018-02-03T02:04:18.332Z,96.97
2018-02-03T02:05:18.293Z,96.59
2018-02-03T02:06:18.270Z,97.06
2018-02-03T02:07:18.232Z,96.78
2018-02-03T02:08:18.206Z,97.35
2018-02-03T02:09:18.170Z,96.40
2018-02-03T02:10:18.176Z,96.69
2018-02-03T02:11:18.129Z,97.44
2018-02-03T02:12:18.084Z,97.44
2018-02-03T02:13:18.050Z,97.44
2018-02-03T02:14:18.024Z,97.16
2018-02-03T02:15:17.991Z,97.35
2018-02-03T02:16:17.964Z,96.88
2018-02-03T02:17:17.973Z,96.88
2018-02-03T02:18:17.903Z,96.88
2018-02-03T02:19:17.870Z,96.59
2018-02-03T02:20:17.845Z,96.69
2018-02-03T02:21:17.813Z,95.93
2018-02-03T02:22:17.778Z,96.02
2018-02-03T02:23:17.744Z,95.74
2018-02-03T02:24:17.720Z,95.74
2018-02-03T02:25:17.749Z,95.55
2018-02-03T02:26:17.656Z,95.83
2018-02-03T02:27:17.625Z,94.79
2018-02-03T02:28:17.598Z,95.93
2018-02-03T02:29:17.570Z,96.59
2018-02-03T02:30:17.535Z,96.69
2018-02-03T02:31:17.511Z,97.06
2018-02-03T02:32:17.477Z,96.59
2018-02-03T02:33:17.447Z,96.50
2018-02-03T02:34:17.407Z,96.69
2018-02-03T02:35:17.389Z,96.88
2018-02-03T02:36:17.357Z,96.50
2018-02-03T02:37:17.340Z,96.40
2018-02-03T02:38:17.291Z,96.97
2018-02-03T02:39:17.263Z,96.02
2018-02-03T02:40:17.230Z,95.64
2018-02-03T02:41:17.198Z,96.69
2018-02-03T02:42:17.174Z,96.02
2018-02-03T02:43:17.141Z,96.69
2018-02-03T02:44:17.109Z,96.31
2018-02-03T02:45:17.082Z,96.31
2018-02-03T02:46:17.045Z,96.31
2018-02-03T02:47:17.018Z,96.59
2018-02-03T02:48:16.988Z,97.16
2018-02-03T02:49:16.958Z,97.44
2018-02-03T02:50:16.924Z,97.06
2018-02-03T02:51:16.893Z,97.44
2018-02-03T02:52:16.867Z,98.11
2018-02-03T02:53:16.840Z,98.01
2018-02-03T02:54:16.796Z,97.63
2018-02-03T02:55:16.786Z,97.44
2018-02-03T02:56:16.742Z,97.25
2018-02-03T02:57:16.715Z,97.35
2018-02-03T02:58:16.678Z,96.97
2018-02-03T02:59:16.650Z,96.88
2018-02-03T03:00:16.625Z,97.16
2018-02-03T03:01:16.592Z,97.35
2018-02-03T03:02:16.566Z,97.35
2018-02-03T03:03:16.530Z,97.44
2018-02-03T03:04:16.498Z,97.35
2018-02-03T03:05:16.470Z,96.69
2018-02-03T03:06:16.438Z,97.54
2018-02-03T03:07:16.443Z,97.82
2018-02-03T03:08:16.381Z,97.44
2018-02-03T03:09:16.345Z,97.54
2018-02-03T03:10:16.313Z,97.16
2018-02-03T03:11:16.296Z,97.92
2018-02-03T03:12:16.258Z,98.01
2018-02-03T03:13:16.220Z,98.30
2018-02-03T03:14:16.194Z,97.35
2018-02-03T03:15:16.160Z,97.44
2018-02-03T03:16:16.137Z,97.35
2018-02-03T03:17:16.105Z,97.25
2018-02-03T03:18:16.071Z,97.63
2018-02-03T03:19:16.054Z,97.73
2018-02-03T03:20:16.011Z,98.30
2018-02-03T03:21:15.980Z,98.20
2018-02-03T03:22:15.948Z,97.25
2018-02-03T03:23:15.918Z,97.54
2018-02-03T03:24:15.883Z,97.54
2018-02-03T03:25:15.855Z,97.35
2018-02-03T03:26:15.827Z,97.35
2018-02-03T03:27:15.796Z,98.01
2018-02-03T03:28:15.766Z,98.11
2018-02-03T03:29:15.738Z,98.11
2018-02-03T03:30:15.706Z,98.01
2018-02-03T03:31:15.670Z,98.11
2018-02-03T03:32:15.638Z,98.01
2018-02-03T03:33:15.611Z,98.30
2018-02-03T03:34:15.579Z,98.20
2018-02-03T03:35:15.548Z,98.39
2018-02-03T03:36:15.520Z,97.54
2018-02-03T03:37:15.485Z,98.11
2018-02-03T03:38:15.455Z,98.11
2018-02-03T03:39:15.422Z,97.73
2018-02-03T03:40:15.395Z,98.20
2018-02-03T03:41:15.361Z,97.82
2018-02-03T03:42:15.329Z,98.30
2018-02-03T03:43:15.300Z,98.30
2018-02-03T03:44:15.270Z,98.11
2018-02-03T03:45:15.235Z,98.39
2018-02-03T03:46:15.205Z,98.11
2018-02-03T03:47:15.174Z,98.30
2018-02-03T03:48:15.148Z,98.39
2018-02-03T03:49:15.114Z,98.30
2018-02-03T03:50:15.085Z,98.49
2018-02-03T03:51:15.056Z,98.11
2018-02-03T03:52:15.018Z,98.20
2018-02-03T03:53:14.989Z,97.82
2018-02-03T03:54:14.962Z,98.01
2018-02-03T03:55:14.933Z,98.30
2018-02-03T03:56:14.897Z,97.25
2018-02-03T03:57:14.870Z,97.44
2018-02-03T03:58:14.834Z,97.25
2018-02-03T03:59:14.806Z,98.20
2018-02-03T04:00:14.776Z,98.01
2018-02-03T04:01:14.750Z,97.16
2018-02-03T04:02:14.712Z,97.25
2018-02-03T04:03:14.681Z,97.16
2018-02-03T04:04:14.651Z,97.63
2018-02-03T04:05:14.620Z,97.35
2018-02-03T04:06:14.588Z,97.82
2018-02-03T04:07:14.562Z,97.44
2018-02-03T04:08:14.532Z,97.73
2018-02-03T04:09:14.502Z,98.01
2018-02-03T04:10:14.466Z,98.20
2018-02-03T04:11:14.436Z,98.30
2018-02-03T04:12:14.410Z,97.35
2018-02-03T04:13:14.381Z,97.54
2018-02-03T04:14:14.341Z,97.16
2018-02-03T04:15:14.311Z,97.16
2018-02-03T04:16:14.282Z,97.25
2018-02-03T04:17:14.255Z,97.54
2018-02-03T04:18:14.221Z,97.63
2018-02-03T04:19:14.193Z,96.78
2018-02-03T04:20:14.161Z,97.44
2018-02-03T04:21:14.134Z,97.06
2018-02-03T04:22:14.099Z,97.44
2018-02-03T04:23:14.076Z,96.97
2018-02-03T04:24:14.039Z,97.06
2018-02-03T04:25:14.011Z,97.16
2018-02-03T04:26:13.977Z,97.35
2018-02-03T04:27:13.951Z,96.69
2018-02-03T04:28:13.920Z,96.97
2018-02-03T04:29:13.886Z,96.78
2018-02-03T04:30:13.854Z,96.97
2018-02-03T04:31:13.825Z,97.44
2018-02-03T04:32:13.794Z,97.16
2018-02-03T04:33:13.765Z,98.68
2018-02-03T04:34:13.740Z,97.63
2018-02-03T04:35:13.706Z,97.73
2018-02-03T04:36:13.671Z,98.49
2018-02-03T04:37:13.644Z,98.11
2018-02-03T04:38:13.615Z,97.73
2018-02-03T04:39:13.582Z,98.20
2018-02-03T04:40:13.553Z,98.30
2018-02-03T04:41:13.514Z,98.39
2018-02-03T04:42:13.492Z,98.30
2018-02-03T04:43:13.456Z,98.30
2018-02-03T04:44:13.430Z,97.92
2018-02-03T04:45:13.403Z,98.39
2018-02-03T04:46:13.369Z,98.49
2018-02-03T04:47:13.336Z,98.49
2018-02-03T04:48:13.305Z,98.58
2018-02-03T04:49:13.276Z,98.06
2018-02-03T04:50:13.262Z,98.49
2018-02-03T04:51:13.215Z,98.39
2018-02-03T04:52:13.183Z,98.39
2018-02-03T04:53:13.150Z,98.39
2018-02-03T04:54:13.124Z,98.49
2018-02-03T04:55:13.092Z,97.82
2018-02-03T04:56:13.059Z,98.01
2018-02-03T04:57:13.029Z,98.34
2018-02-03T04:58:13.004Z,98.20
2018-02-03T04:59:12.971Z,98.30
2018-02-03T05:00:12.935Z,98.39
2018-02-03T05:01:12.924Z,98.30
2018-02-03T05:02:12.877Z,98.49
2018-02-03T05:03:12.840Z,98.20
2018-02-03T05:04:12.813Z,97.35
2018-02-03T05:05:12.787Z,97.25
2018-02-03T05:06:12.754Z,97.44
2018-02-03T05:07:12.724Z,97.35
2018-02-03T05:08:12.691Z,96.97
2018-02-03T05:09:12.668Z,97.44
2018-02-03T05:10:12.629Z,97.16
2018-02-03T05:11:12.597Z,96.78
2018-02-03T05:12:12.570Z,96.78
2018-02-03T05:13:12.541Z,96.78
2018-02-03T05:14:12.523Z,96.40
2018-02-03T05:15:12.748Z,96.97
2018-02-03T05:16:12.977Z,96.69
2018-02-03T05:17:12.419Z,96.02
2018-02-03T05:18:12.382Z,96.02
2018-02-03T05:19:12.357Z,95.55
2018-02-03T05:20:12.338Z,96.12
2018-02-03T05:21:12.296Z,95.74
2018-02-03T05:22:12.264Z,95.55
2018-02-03T05:23:12.231Z,95.93
2018-02-03T05:24:12.202Z,95.36
2018-02-03T05:25:12.169Z,95.17
2018-02-03T05:26:12.149Z,94.98
2018-02-03T05:27:12.108Z,95.07
2018-02-03T05:28:12.087Z,95.45
2018-02-03T05:29:12.050Z,96.02
2018-02-03T05:30:12.021Z,95.64
2018-02-03T05:31:11.987Z,96.02
2018-02-03T05:32:11.959Z,95.36
2018-02-03T05:33:11.933Z,95.74
2018-02-03T05:34:11.893Z,95.74
2018-02-03T05:35:11.868Z,95.74
2018-02-03T05:36:11.834Z,95.74
2018-02-03T05:37:11.831Z,95.45
2018-02-03T05:38:11.772Z,95.93
2018-02-03T05:39:11.744Z,95.74
2018-02-03T05:40:11.710Z,96.69
2018-02-03T05:41:11.684Z,96.59
2018-02-03T05:42:11.648Z,95.83
2018-02-03T05:43:11.621Z,96.02
2018-02-03T05:44:11.590Z,95.83
2018-02-03T05:45:11.559Z,95.83
2018-02-03T05:46:11.525Z,95.74
2018-02-03T05:47:11.496Z,95.74
2018-02-03T05:48:11.464Z,96.12
2018-02-03T05:49:11.439Z,96.78
2018-02-03T05:50:11.404Z,96.21
2018-02-03T05:51:11.372Z,95.93
2018-02-03T05:52:11.347Z,95.74
2018-02-03T05:53:11.316Z,95.74
2018-02-03T05:54:11.280Z,95.83
2018-02-03T05:55:11.252Z,96.50
2018-02-03T05:56:11.257Z,95.93
2018-02-03T05:57:11.190Z,96.02
2018-02-03T05:58:11.171Z,95.55
2018-02-03T05:59:11.132Z,95.64
2018-02-03T06:00:11.101Z,96.02
2018-02-03T06:01:11.064Z,95.83
2018-02-03T06:02:11.040Z,95.64
2018-02-03T06:03:11.043Z,96.02
2018-02-03T06:04:10.971Z,95.83
2018-02-03T06:05:10.947Z,95.74
2018-02-03T06:06:10.914Z,95.83
2018-02-03T06:07:10.881Z,95.83
2018-02-03T06:08:10.855Z,95.74
2018-02-03T06:09:10.823Z,95.93
2018-02-03T06:10:10.788Z,95.83
2018-02-03T06:11:10.760Z,95.93
2018-02-03T06:12:10.734Z,96.02
2018-02-03T06:13:10.700Z,96.12
2018-02-03T06:14:10.666Z,96.59
2018-02-03T06:15:10.636Z,96.69
2018-02-03T06:16:10.609Z,97.73
2018-02-03T06:17:10.580Z,97.63
2018-02-03T06:18:10.542Z,97.35
2018-02-03T06:19:10.514Z,96.88
2018-02-03T06:20:10.482Z,96.78
2018-02-03T06:21:10.454Z,96.78
2018-02-03T06:22:10.423Z,97.25
2018-02-03T06:23:10.388Z,97.25
2018-02-03T06:24:10.363Z,97.44
2018-02-03T06:25:10.335Z,97.44
2018-02-03T06:26:10.297Z,97.35
2018-02-03T06:27:10.268Z,97.44
2018-02-03T06:28:10.244Z,97.54
2018-02-03T06:29:10.202Z,97.06
2018-02-03T06:30:10.186Z,97.73
2018-02-03T06:31:10.148Z,98.11
2018-02-03T06:32:10.117Z,97.73
2018-02-03T06:33:10.084Z,98.30
2018-02-03T06:34:10.062Z,97.44
2018-02-03T06:35:10.022Z,98.49
2018-02-03T06:36:09.994Z,98.30
2018-02-03T06:37:09.960Z,98.11
2018-02-03T06:38:09.934Z,98.39
2018-02-03T06:39:09.899Z,98.68
2018-02-03T06:40:09.872Z,98.39
2018-02-03T06:41:09.840Z,98.86
2018-02-03T06:42:09.812Z,98.39
2018-02-03T06:43:09.791Z,98.77
2018-02-03T06:44:09.749Z,99.52
2018-02-03T06:45:09.720Z,99.33
2018-02-03T06:46:09.686Z,99.15
2018-02-03T06:47:09.661Z,98.49
2018-02-03T06:48:09.625Z,98.58
2018-02-03T06:49:09.599Z,98.11
2018-02-03T06:50:09.565Z,98.77
2018-02-03T06:51:09.543Z,98.11
2018-02-03T06:52:09.506Z,98.39
2018-02-03T06:53:09.485Z,99.15
2018-02-03T06:54:09.448Z,98.49
2018-02-03T06:55:09.424Z,98.20
2018-02-03T06:56:09.381Z,98.49
2018-02-03T06:57:09.367Z,98.20
2018-02-03T06:58:09.344Z,98.49
2018-02-03T06:59:09.298Z,97.78
2018-02-03T07:00:09.258Z,97.78
2018-02-03T07:01:09.244Z,97.68
2018-02-03T07:02:09.217Z,98.25
2018-02-03T07:03:09.174Z,98.06
2018-02-03T07:04:09.141Z,97.59
2018-02-03T07:05:09.110Z,97.49
2018-02-03T07:06:09.084Z,97.30
2018-02-03T07:07:09.053Z,97.49
2018-02-03T07:08:09.056Z,97.21
2018-02-03T07:09:08.989Z,97.02
2018-02-03T07:10:08.961Z,96.83
2018-02-03T07:11:08.940Z,96.73
2018-02-03T07:12:08.898Z,97.02
2018-02-03T07:13:08.867Z,97.30
2018-02-03T07:14:08.846Z,97.68
2018-02-03T07:15:08.810Z,97.40
2018-02-03T07:16:08.780Z,97.49
2018-02-03T07:17:08.751Z,96.64
2018-02-03T07:18:08.719Z,96.73
2018-02-03T07:19:08.686Z,97.02
2018-02-03T07:20:08.661Z,96.55
2018-02-03T07:21:08.629Z,96.45
2018-02-03T07:22:08.593Z,96.55
2018-02-03T07:23:08.564Z,97.11
2018-02-03T07:24:08.536Z,96.92
2018-02-03T07:25:08.509Z,97.21
2018-02-03T07:26:08.474Z,97.49
2018-02-03T07:27:08.442Z,97.49
2018-02-03T07:28:08.416Z,97.49
2018-02-03T07:29:08.387Z,97.49
2018-02-03T07:30:08.352Z,97.49
2018-02-03T07:31:08.328Z,96.73
2018-02-03T07:32:08.296Z,96.64
2018-02-03T07:33:08.267Z,97.11
2018-02-03T07:34:08.236Z,97.21
2018-02-03T07:35:08.205Z,97.49
2018-02-03T07:36:08.171Z,97.59
2018-02-03T07:37:08.141Z,97.59
2018-02-03T07:38:08.111Z,98.16
2018-02-03T07:39:08.087Z,98.54
2018-02-03T07:40:08.051Z,98.16
2018-02-03T07:41:08.024Z,98.35
2018-02-03T07:42:07.992Z,98.06
2018-02-03T07:43:07.963Z,97.11
2018-02-03T07:44:07.932Z,98.16
2018-02-03T07:45:07.903Z,98.25
2018-02-03T07:46:07.868Z,97.11
2018-02-03T07:47:07.848Z,97.59
2018-02-03T07:48:07.818Z,98.25
2018-02-03T07:49:09.294Z,98.06
2018-02-03T07:50:07.757Z,97.30
2018-02-03T07:51:07.718Z,97.40
2018-02-03T07:52:07.691Z,97.02
2018-02-03T07:53:07.664Z,97.59
2018-02-03T07:54:07.629Z,97.30
2018-02-03T07:55:07.596Z,97.49
2018-02-03T07:56:07.572Z,96.92
2018-02-03T07:57:07.536Z,97.40
2018-02-03T07:58:07.507Z,97.40
2018-02-03T07:59:07.483Z,97.40
2018-02-03T08:00:07.447Z,97.59
2018-02-03T08:01:07.434Z,97.49
2018-02-03T08:02:07.459Z,97.30
2018-02-03T08:03:07.361Z,97.97
2018-02-03T08:04:07.335Z,98.35
2018-02-03T08:05:07.296Z,98.35
2018-02-03T08:06:07.265Z,98.72
2018-02-03T08:07:07.241Z,98.63
2018-02-03T08:08:07.207Z,98.35
2018-02-03T08:09:07.180Z,98.06
2018-02-03T08:10:07.147Z,98.25
2018-02-03T08:11:07.122Z,98.44
2018-02-03T08:12:07.081Z,98.16
2018-02-03T08:13:07.060Z,97.49
2018-02-03T08:14:07.025Z,97.02
2018-02-03T08:15:06.995Z,97.02
2018-02-03T08:16:06.966Z,96.36
2018-02-03T08:17:06.962Z,96.83
2018-02-03T08:18:06.913Z,96.73
2018-02-03T08:19:06.881Z,96.83
2018-02-03T08:20:06.846Z,96.45
2018-02-03T08:21:06.818Z,97.21
2018-02-03T08:22:06.793Z,97.68
2018-02-03T08:23:06.759Z,96.55
2018-02-03T08:24:06.736Z,96.55
2018-02-03T08:25:06.698Z,96.92
2018-02-03T08:26:06.672Z,97.02
2018-02-03T08:27:06.639Z,95.88
2018-02-03T08:28:06.622Z,95.88
2018-02-03T08:29:06.579Z,95.93
2018-02-03T08:30:06.573Z,96.17
2018-02-03T08:31:06.525Z,95.98
2018-02-03T08:32:06.497Z,95.79
2018-02-03T08:33:06.463Z,95.26
2018-02-03T08:34:06.431Z,95.22
2018-02-03T08:35:06.400Z,95.41
2018-02-03T08:36:06.374Z,96.07
2018-02-03T08:37:06.339Z,97.02
2018-02-03T08:38:06.314Z,97.02
2018-02-03T08:39:06.284Z,95.79
2018-02-03T08:40:06.252Z,96.73
2018-02-03T08:41:06.221Z,96.55
2018-02-03T08:42:06.196Z,96.26
2018-02-03T08:43:06.209Z,95.84
2018-02-03T08:44:06.134Z,96.03
2018-02-03T08:45:06.106Z,94.79
2018-02-03T08:46:06.072Z,94.79
2018-02-03T08:47:06.047Z,94.13
2018-02-03T08:48:06.014Z,93.65
2018-02-03T08:49:05.983Z,93.46
2018-02-03T08:50:05.952Z,93.75
2018-02-03T08:51:05.920Z,93.56
2018-02-03T08:52:05.902Z,93.27
2018-02-03T08:53:05.868Z,93.75
2018-02-03T08:54:05.833Z,94.04
2018-02-03T08:55:05.801Z,93.84
2018-02-03T08:56:05.777Z,94.42
2018-02-03T08:57:05.746Z,94.32
2018-02-03T08:58:05.717Z,93.56
2018-02-03T08:59:05.684Z,94.32
2018-02-03T09:00:05.659Z,94.70
2018-02-03T09:01:05.627Z,95.36
2018-02-03T09:02:05.599Z,95.26
2018-02-03T09:03:05.562Z,94.79
2018-02-03T09:04:05.533Z,95.26
2018-02-03T09:05:05.502Z,95.26
2018-02-03T09:06:05.482Z,95.07
2018-02-03T09:07:05.447Z,95.07
2018-02-03T09:08:05.474Z,95.26
2018-02-03T09:09:05.389Z,94.32
2018-02-03T09:10:05.352Z,94.13
2018-02-03T09:11:05.328Z,93.75
2018-02-03T09:12:05.293Z,93.75
2018-02-03T09:13:05.272Z,93.27
2018-02-03T09:14:05.236Z,93.46
2018-02-03T09:15:05.215Z,93.65
2018-02-03T09:16:05.170Z,93.37
2018-02-03T09:17:05.170Z,92.90
2018-02-03T09:18:05.118Z,93.46
2018-02-03T09:19:05.087Z,93.65
2018-02-03T09:20:05.064Z,93.94
2018-02-03T09:21:05.030Z,93.75
2018-02-03T09:22:05.000Z,93.46
2018-02-03T09:23:04.969Z,93.61
2018-02-03T09:24:04.961Z,92.94
2018-02-03T09:25:04.912Z,93.37
2018-02-03T09:26:04.880Z,93.70
2018-02-03T09:27:04.845Z,93.70
2018-02-03T09:28:04.818Z,93.51
2018-02-03T09:29:04.787Z,92.85
2018-02-03T09:30:04.761Z,92.47
2018-02-03T09:31:04.725Z,92.47
2018-02-03T09:32:04.701Z,92.94
2018-02-03T09:33:04.673Z,92.57
2018-02-03T09:34:04.644Z,91.90
2018-02-03T09:35:04.614Z,92.94
2018-02-03T09:36:04.586Z,92.76
2018-02-03T09:37:04.551Z,92.57
2018-02-03T09:38:04.520Z,92.66
2018-02-03T09:39:04.489Z,92.76
2018-02-03T09:40:04.466Z,92.18
2018-02-03T09:41:04.480Z,91.99
2018-02-03T09:42:04.406Z,91.42
2018-02-03T09:43:04.376Z,91.52
2018-02-03T09:44:04.349Z,91.14
2018-02-03T09:45:04.320Z,91.05
2018-02-03T09:46:04.286Z,91.05
2018-02-03T09:47:04.264Z,91.05
2018-02-03T09:48:04.226Z,91.24
2018-02-03T09:49:04.199Z,91.33
2018-02-03T09:50:04.171Z,92.09
2018-02-03T09:51:04.137Z,91.90
2018-02-03T09:52:04.108Z,91.42
2018-02-03T09:53:04.077Z,90.95
2018-02-03T09:54:04.049Z,91.14
2018-02-03T09:55:04.022Z,91.14
2018-02-03T09:56:03.988Z,91.05
2018-02-03T09:57:03.964Z,90.76
2018-02-03T09:58:03.929Z,91.52
2018-02-03T09:59:03.909Z,91.52
2018-02-03T10:00:03.873Z,91.33
2018-02-03T10:01:03.846Z,91.05
2018-02-03T10:02:03.858Z,91.05
2018-02-03T10:03:03.784Z,91.33
2018-02-03T10:04:03.764Z,90.38
2018-02-03T10:05:03.727Z,90.38
2018-02-03T10:06:03.697Z,90.05
2018-02-03T10:07:03.666Z,89.95
2018-02-03T10:08:03.639Z,88.72
2018-02-03T10:09:03.608Z,89.10
2018-02-03T10:10:03.573Z,88.24
2018-02-03T10:11:03.569Z,88.34
2018-02-03T10:12:03.526Z,88.06
2018-02-03T10:13:03.502Z,88.24
2018-02-03T10:14:03.464Z,88.81
2018-02-03T10:15:03.433Z,89.15
2018-02-03T10:16:03.405Z,89.34
2018-02-03T10:17:03.375Z,89.15
2018-02-03T10:18:03.348Z,89.62
2018-02-03T10:19:03.313Z,89.62
2018-02-03T10:20:03.291Z,89.81
2018-02-03T10:21:03.257Z,90.19
2018-02-03T10:22:03.231Z,90.67
2018-02-03T10:23:03.197Z,90.29
2018-02-03T10:24:03.172Z,90.29
2018-02-03T10:25:03.188Z,90.57
2018-02-03T10:26:03.114Z,91.14
2018-02-03T10:27:03.085Z,90.91
2018-02-03T10:28:03.054Z,92.04
2018-02-03T10:29:03.027Z,91.95
2018-02-03T10:30:02.991Z,92.14
2018-02-03T10:31:02.973Z,92.42
2018-02-03T10:32:02.972Z,91.85
2018-02-03T10:33:02.905Z,91.33
2018-02-03T10:34:02.876Z,91.66
2018-02-03T10:35:02.850Z,91.61
2018-02-03T10:36:02.815Z,91.24
2018-02-03T10:37:02.796Z,91.14
2018-02-03T10:38:02.755Z,90.95
2018-02-03T10:39:02.734Z,91.99
2018-02-03T10:40:02.700Z,92.09
2018-02-03T10:41:02.678Z,92.18
2018-02-03T10:42:02.647Z,91.05
2018-02-03T10:43:02.612Z,91.05
2018-02-03T10:44:02.590Z,91.14
2018-02-03T10:45:02.552Z,90.48
2018-02-03T10:46:02.528Z,90.67
2018-02-03T10:47:02.500Z,90.19
2018-02-03T10:48:02.465Z,90.48
2018-02-03T10:49:02.449Z,90.76
2018-02-03T10:50:02.411Z,91.33
2018-02-03T10:51:02.382Z,90.95
2018-02-03T10:52:02.349Z,89.91
2018-02-03T10:53:02.320Z,90.19
2018-02-03T10:54:02.289Z,89.91
2018-02-03T10:55:02.262Z,89.43
2018-02-03T10:56:02.232Z,89.81
2018-02-03T10:57:02.208Z,89.81
2018-02-03T10:58:02.174Z,88.01
2018-02-03T10:59:02.143Z,88.20
2018-02-03T11:00:02.122Z,88.20
2018-02-03T11:01:02.090Z,88.48
2018-02-03T11:02:02.056Z,87.92
2018-02-03T11:03:02.028Z,88.48
2018-02-03T11:04:02.000Z,88.68
2018-02-03T11:05:01.970Z,89.53
2018-02-03T11:06:01.936Z,89.34
2018-02-03T11:07:01.911Z,89.06
2018-02-03T11:08:01.884Z,89.15
2018-02-03T11:09:01.849Z,89.06
2018-02-03T11:10:01.820Z,87.82
2018-02-03T11:11:01.785Z,89.15
2018-02-03T11:12:01.763Z,89.15
2018-02-03T11:13:01.730Z,89.53
2018-02-03T11:14:01.720Z,90.38
2018-02-03T11:15:01.672Z,88.91
2018-02-03T11:16:01.649Z,87.96
2018-02-03T11:17:01.616Z,87.54
2018-02-03T11:18:01.593Z,87.58
2018-02-03T11:19:01.558Z,87.58
2018-02-03T11:20:01.534Z,86.91
2018-02-03T11:21:01.501Z,86.63
2018-02-03T11:22:01.477Z,87.77
2018-02-03T11:23:01.459Z,87.01
2018-02-03T11:24:01.418Z,87.68
2018-02-03T11:25:01.391Z,87.35
2018-02-03T11:26:01.356Z,88.10
2018-02-03T11:27:01.329Z,87.82
2018-02-03T11:28:01.299Z,87.54
2018-02-03T11:29:01.273Z,87.68
2018-02-03T11:30:01.245Z,86.87
2018-02-03T11:31:01.216Z,86.91
2018-02-03T11:32:01.185Z,86.78
2018-02-03T11:33:01.162Z,87.73
2018-02-03T11:34:01.123Z,87.06
2018-02-03T11:35:01.101Z,86.30
2018-02-03T11:36:01.069Z,86.87
2018-02-03T11:37:01.050Z,85.74
2018-02-03T11:38:01.014Z,85.78
2018-02-03T11:39:00.990Z,85.78
2018-02-03T11:40:00.954Z,85.49
2018-02-03T11:41:00.933Z,83.78
2018-02-03T11:42:00.895Z,84.45
2018-02-03T11:43:00.870Z,84.36
2018-02-03T11:44:00.841Z,83.88
2018-02-03T11:45:00.811Z,83.65
2018-02-03T11:46:00.779Z,84.59
2018-02-03T11:47:00.750Z,84.50
2018-02-03T11:48:00.725Z,84.41
2018-02-03T11:49:00.695Z,84.50
2018-02-03T11:50:00.669Z,84.69
2018-02-03T11:51:00.637Z,85.36
2018-02-03T11:52:00.603Z,85.55
2018-02-03T11:53:00.582Z,85.74
2018-02-03T11:54:00.543Z,85.83
2018-02-03T11:55:00.521Z,86.21
2018-02-03T11:56:00.492Z,85.45
2018-02-03T11:57:00.465Z,84.88
2018-02-03T11:58:00.431Z,84.69
2018-02-03T11:59:00.403Z,85.78
2018-02-03T12:00:00.372Z,85.78
2018-02-03T12:01:00.347Z,85.40
2018-02-03T12:02:00.318Z,83.97
2018-02-03T12:03:00.306Z,84.07
2018-02-03T12:04:00.257Z,83.12
2018-02-03T12:05:00.230Z,81.60
2018-02-03T12:06:00.202Z,82.17
2018-02-03T12:07:00.174Z,82.50
2018-02-03T12:08:00.139Z,81.88
2018-02-03T12:09:00.116Z,81.41
2018-02-03T12:10:00.088Z,81.60
2018-02-03T12:11:00.061Z,80.08
2018-02-03T12:12:00.033Z,80.27
2018-02-03T12:12:59.995Z,80.94
2018-02-03T12:13:59.972Z,81.32
2018-02-03T12:14:59.940Z,81.51
2018-02-03T12:15:59.915Z,80.32
2018-02-03T12:16:59.889Z,80.27
2018-02-03T12:17:59.861Z,79.61
2018-02-03T12:18:59.826Z,79.90
2018-02-03T12:19:59.809Z,80.75
2018-02-03T12:20:59.774Z,80.46
2018-02-03T12:21:59.741Z,80.08
2018-02-03T12:22:59.728Z,80.27
2018-02-03T12:23:59.688Z,79.90
2018-02-03T12:24:59.683Z,80.75
2018-02-03T12:25:59.626Z,80.18
2018-02-03T12:26:59.599Z,80.18
2018-02-03T12:27:59.573Z,80.94
2018-02-03T12:28:59.541Z,81.41
2018-02-03T12:29:59.520Z,81.17
2018-02-03T12:30:59.489Z,81.60
2018-02-03T12:31:59.451Z,81.17
2018-02-03T12:32:59.429Z,81.23
2018-02-03T12:33:59.406Z,80.69
2018-02-03T12:34:59.373Z,80.18
2018-02-03T12:35:59.341Z,81.23
2018-02-03T12:36:59.315Z,80.75
2018-02-03T12:37:59.280Z,81.04
2018-02-03T12:38:59.254Z,81.23
2018-02-03T12:39:59.230Z,81.41
2018-02-03T12:40:59.196Z,81.41
2018-02-03T12:41:59.171Z,81.41
2018-02-03T12:42:59.138Z,82.08
2018-02-03T12:43:59.125Z,82.55
2018-02-03T12:44:59.087Z,82.36
2018-02-03T12:45:59.078Z,82.36
2018-02-03T12:46:59.039Z,81.60
2018-02-03T12:47:59.002Z,81.79
2018-02-03T12:48:58.970Z,81.98
2018-02-03T12:49:58.964Z,82.17
2018-02-03T12:50:58.911Z,82.27
2018-02-03T12:51:58.886Z,83.12